Bonfinopolis de Minas, Brazil
Current Conditions -  °F | °C
As of 6:00 PM on Thursday 23 Oct 2014 (Local Time) from SBBR Reporting Station
Broken Clouds Broken Clouds  
Wind Chill: 79°   Ceiling: 10000
Heat Index: 80°   Visibility: 6mi
Dew Point: 59°   Wind: 3mph
Humidity: 51%   Direction: 40°NE
Pressure: 30.06"   Gusts: NA
Location:  16.57°S, 45.99°W
Report Text: SBBR 232000Z 04003KT 9999 FEW030 FEW040TCU BKN100 26/15 Q1018
Loading
Personal Weather Stations






























Interactive Weather Map
Tropical Storm Tracking
New forecast layout! Learn more

10-Day Weather Forecast

Advertisements
Track Severe Weather on mobile